sensor_id;sensor_type;location;lat;lon;timestamp;pressure;altitude;pressure_sealevel;temperature;humidity
54308;BME280;40208;39.778;2.710;2023-02-13T00:01:43;103304.66;;;3.66;100.00
54308;BME280;40208;39.778;2.710;2023-02-13T00:04:28;103308.06;;;3.62;100.00
54308;BME280;40208;39.778;2.710;2023-02-13T00:07:13;103307.09;;;3.58;100.00
54308;BME280;40208;39.778;2.710;2023-02-13T00:09:58;103303.38;;;3.50;100.00
54308;BME280;40208;39.778;2.710;2023-02-13T00:12:42;103298.84;;;3.43;100.00
54308;BME280;40208;39.778;2.710;2023-02-13T00:15:27;103309.38;;;3.45;100.00
54308;BME280;40208;39.778;2.710;2023-02-13T00:18:12;103302.28;;;3.40;100.00
54308;BME280;40208;39.778;2.710;2023-02-13T00:20:58;103296.91;;;3.36;100.00
54308;BME280;40208;39.778;2.710;2023-02-13T00:23:43;103289.78;;;3.30;100.00
54308;BME280;40208;39.778;2.710;2023-02-13T00:26:27;103290.59;;;3.28;100.00
54308;BME280;40208;39.778;2.710;2023-02-13T00:29:12;103283.53;;;3.27;100.00
54308;BME280;40208;39.778;2.710;2023-02-13T00:31:57;103287.84;;;3.23;100.00
54308;BME280;40208;39.778;2.710;2023-02-13T00:34:43;103289.66;;;3.27;100.00
54308;BME280;40208;39.778;2.710;2023-02-13T00:37:28;103286.94;;;3.23;100.00
54308;BME280;40208;39.778;2.710;2023-02-13T00:40:13;103285.34;;;3.28;100.00
54308;BME280;40208;39.778;2.710;2023-02-13T00:42:57;103286.03;;;3.22;100.00
54308;BME280;40208;39.778;2.710;2023-02-13T00:45:42;103284.28;;;3.21;100.00
54308;BME280;40208;39.778;2.710;2023-02-13T00:48:27;103281.59;;;3.19;100.00
54308;BME280;40208;39.778;2.710;2023-02-13T00:51:12;103279.03;;;3.21;100.00
54308;BME280;40208;39.778;2.710;2023-02-13T00:53:56;103286.03;;;3.21;100.00
54308;BME280;40208;39.778;2.710;2023-02-13T00:56:41;103280.53;;;3.11;100.00
54308;BME280;40208;39.778;2.710;2023-02-13T00:59:25;103283.19;;;3.13;100.00
54308;BME280;40208;39.778;2.710;2023-02-13T01:02:10;103283.13;;;3.10;100.00
54308;BME280;40208;39.778;2.710;2023-02-13T01:04:55;103287.53;;;3.11;100.00
54308;BME280;40208;39.778;2.710;2023-02-13T01:07:39;103283.78;;;3.03;100.00
54308;BME280;40208;39.778;2.710;2023-02-13T01:10:24;103291.63;;;3.01;100.00
54308;BME280;40208;39.778;2.710;2023-02-13T01:13:09;103293.34;;;3.01;100.00
54308;BME280;40208;39.778;2.710;2023-02-13T01:15:53;103295.19;;;3.03;100.00
54308;BME280;40208;39.778;2.710;2023-02-13T01:18:37;103295.16;;;3.02;100.00
54308;BME280;40208;39.778;2.710;2023-02-13T01:21:22;103301.97;;;2.95;100.00
54308;BME280;40208;39.778;2.710;2023-02-13T01:24:07;103310.66;;;2.92;100.00
54308;BME280;40208;39.778;2.710;2023-02-13T01:26:52;103304.41;;;2.89;100.00
54308;BME280;40208;39.778;2.710;2023-02-13T01:29:37;103303.41;;;2.84;100.00
54308;BME280;40208;39.778;2.710;2023-02-13T01:32:21;103309.53;;;2.84;100.00
54308;BME280;40208;39.778;2.710;2023-02-13T01:35:06;103312.00;;;2.78;100.00
54308;BME280;40208;39.778;2.710;2023-02-13T01:37:51;103304.88;;;2.74;100.00
54308;BME280;40208;39.778;2.710;2023-02-13T01:40:42;103303.22;;;2.78;100.00
54308;BME280;40208;39.778;2.710;2023-02-13T01:46:32;103301.16;;;2.66;100.00
54308;BME280;40208;39.778;2.710;2023-02-13T01:49:20;103313.47;;;2.68;100.00
54308;BME280;40208;39.778;2.710;2023-02-13T01:52:07;103310.75;;;2.65;100.00
54308;BME280;40208;39.778;2.710;2023-02-13T01:54:52;103312.53;;;2.66;100.00
54308;BME280;40208;39.778;2.710;2023-02-13T01:57:37;103310.72;;;2.64;100.00
54308;BME280;40208;39.778;2.710;2023-02-13T02:00:23;103302.06;;;2.66;100.00
54308;BME280;40208;39.778;2.710;2023-02-13T02:03:10;103310.88;;;2.70;100.00
54308;BME280;40208;39.778;2.710;2023-02-13T02:05:56;103308.94;;;2.63;100.00
54308;BME280;40208;39.778;2.710;2023-02-13T02:08:43;103311.53;;;2.63;100.00
54308;BME280;40208;39.778;2.710;2023-02-13T02:14:36;103310.59;;;2.61;100.00
54308;BME280;40208;39.778;2.710;2023-02-13T02:17:21;103307.97;;;2.59;100.00
54308;BME280;40208;39.778;2.710;2023-02-13T02:32:06;103314.75;;;2.52;100.00
54308;BME280;40208;39.778;2.710;2023-02-13T02:35:00;103316.31;;;2.46;100.00
54308;BME280;40208;39.778;2.710;2023-02-13T02:38:01;103318.00;;;2.44;100.00
54308;BME280;40208;39.778;2.710;2023-02-13T02:46:26;103306.28;;;2.31;100.00
54308;BME280;40208;39.778;2.710;2023-02-13T02:49:15;103309.03;;;2.36;100.00
54308;BME280;40208;39.778;2.710;2023-02-13T02:52:19;103305.75;;;2.43;100.00
54308;BME280;40208;39.778;2.710;2023-02-13T02:58:16;103309.97;;;2.38;100.00
54308;BME280;40208;39.778;2.710;2023-02-13T03:01:38;103309.81;;;2.33;100.00
54308;BME280;40208;39.778;2.710;2023-02-13T03:04:43;103314.94;;;2.30;100.00
54308;BME280;40208;39.778;2.710;2023-02-13T03:07:47;103315.59;;;2.21;100.00
54308;BME280;40208;39.778;2.710;2023-02-13T03:10:34;103315.53;;;2.20;100.00
54308;BME280;40208;39.778;2.710;2023-02-13T03:13:39;103337.50;;;2.25;100.00
54308;BME280;40208;39.778;2.710;2023-02-13T03:16:25;103312.31;;;2.28;100.00
54308;BME280;40208;39.778;2.710;2023-02-13T03:22:36;103307.09;;;2.30;100.00
54308;BME280;40208;39.778;2.710;2023-02-13T03:29:00;103305.00;;;2.18;100.00
54308;BME280;40208;39.778;2.710;2023-02-13T03:32:11;103304.81;;;2.12;100.00
54308;BME280;40208;39.778;2.710;2023-02-13T03:35:23;103303.97;;;2.13;100.00
54308;BME280;40208;39.778;2.710;2023-02-13T03:38:29;103300.28;;;2.06;100.00
54308;BME280;40208;39.778;2.710;2023-02-13T03:41:21;103309.19;;;2.11;100.00
54308;BME280;40208;39.778;2.710;2023-02-13T03:44:10;103301.56;;;2.19;100.00
54308;BME280;40208;39.778;2.710;2023-02-13T03:46:57;103301.69;;;2.24;100.00
54308;BME280;40208;39.778;2.710;2023-02-13T03:49:45;103303.59;;;2.29;100.00
54308;BME280;40208;39.778;2.710;2023-02-13T03:52:57;103298.84;;;2.16;100.00
54308;BME280;40208;39.778;2.710;2023-02-13T03:55:44;103292.53;;;2.09;100.00
54308;BME280;40208;39.778;2.710;2023-02-13T03:58:49;103300.97;;;2.01;100.00
54308;BME280;40208;39.778;2.710;2023-02-13T04:04:49;103305.41;;;2.02;100.00
54308;BME280;40208;39.778;2.710;2023-02-13T04:07:35;103305.41;;;2.02;100.00
54308;BME280;40208;39.778;2.710;2023-02-13T04:10:20;103310.38;;;1.94;100.00
54308;BME280;40208;39.778;2.710;2023-02-13T04:13:15;103320.91;;;1.96;100.00
54308;BME280;40208;39.778;2.710;2023-02-13T04:49:08;103329.72;;;1.99;100.00
54308;BME280;40208;39.778;2.710;2023-02-13T04:51:54;103333.00;;;1.92;100.00
54308;BME280;40208;39.778;2.710;2023-02-13T04:54:38;103336.25;;;1.85;100.00
54308;BME280;40208;39.778;2.710;2023-02-13T04:57:23;103332.69;;;1.81;100.00
54308;BME280;40208;39.778;2.710;2023-02-13T05:00:08;103335.22;;;1.80;100.00
54308;BME280;40208;39.778;2.710;2023-02-13T05:02:53;103336.19;;;1.82;100.00
54308;BME280;40208;39.778;2.710;2023-02-13T05:05:38;103337.97;;;1.83;100.00
54308;BME280;40208;39.778;2.710;2023-02-13T05:08:22;103337.81;;;1.78;100.00
54308;BME280;40208;39.778;2.710;2023-02-13T05:11:07;103339.44;;;1.75;100.00
54308;BME280;40208;39.778;2.710;2023-02-13T05:13:52;103339.38;;;1.73;100.00
54308;BME280;40208;39.778;2.710;2023-02-13T05:16:37;103335.06;;;1.75;100.00
54308;BME280;40208;39.778;2.710;2023-02-13T05:19:22;103333.47;;;1.79;100.00
54308;BME280;40208;39.778;2.710;2023-02-13T05:22:07;103336.09;;;1.79;100.00
54308;BME280;40208;39.778;2.710;2023-02-13T05:25:11;103332.59;;;1.78;100.00
54308;BME280;40208;39.778;2.710;2023-02-13T05:27:56;103324.75;;;1.80;100.00
54308;BME280;40208;39.778;2.710;2023-02-13T05:30:41;103329.84;;;1.75;100.00
54308;BME280;40208;39.778;2.710;2023-02-13T05:33:26;103330.69;;;1.74;100.00
54308;BME280;40208;39.778;2.710;2023-02-13T05:36:11;103335.00;;;1.72;100.00
54308;BME280;40208;39.778;2.710;2023-02-13T05:38:56;103335.88;;;1.73;100.00
54308;BME280;40208;39.778;2.710;2023-02-13T05:41:41;103339.44;;;1.75;100.00
54308;BME280;40208;39.778;2.710;2023-02-13T05:44:26;103340.94;;;1.66;100.00
54308;BME280;40208;39.778;2.710;2023-02-13T05:47:11;103334.78;;;1.66;100.00
54308;BME280;40208;39.778;2.710;2023-02-13T05:49:56;103340.00;;;1.66;100.00
54308;BME280;40208;39.778;2.710;2023-02-13T05:52:40;103337.16;;;1.58;100.00
54308;BME280;40208;39.778;2.710;2023-02-13T05:55:25;103338.03;;;1.59;100.00
54308;BME280;40208;39.778;2.710;2023-02-13T05:58:10;103337.00;;;1.54;100.00
54308;BME280;40208;39.778;2.710;2023-02-13T06:00:56;103337.78;;;1.51;100.00
54308;BME280;40208;39.778;2.710;2023-02-13T06:03:43;103345.78;;;1.56;100.00
54308;BME280;40208;39.778;2.710;2023-02-13T06:06:28;103348.34;;;1.54;100.00
54308;BME280;40208;39.778;2.710;2023-02-13T06:09:12;103349.41;;;1.59;100.00
54308;BME280;40208;39.778;2.710;2023-02-13T06:11:57;103344.19;;;1.59;100.00
54308;BME280;40208;39.778;2.710;2023-02-13T06:14:42;103346.88;;;1.62;100.00
54308;BME280;40208;39.778;2.710;2023-02-13T06:17:26;103350.31;;;1.61;100.00
54308;BME280;40208;39.778;2.710;2023-02-13T06:20:11;103349.34;;;1.58;100.00
54308;BME280;40208;39.778;2.710;2023-02-13T06:22:56;103353.84;;;1.62;100.00
54308;BME280;40208;39.778;2.710;2023-02-13T06:25:41;103354.53;;;1.56;100.00
54308;BME280;40208;39.778;2.710;2023-02-13T06:28:26;103352.94;;;1.61;100.00
54308;BME280;40208;39.778;2.710;2023-02-13T06:31:10;103357.56;;;1.68;100.00
54308;BME280;40208;39.778;2.710;2023-02-13T06:33:55;103353.09;;;1.66;100.00
54308;BME280;40208;39.778;2.710;2023-02-13T06:36:40;103357.59;;;1.70;100.00
54308;BME280;40208;39.778;2.710;2023-02-13T06:39:26;103365.13;;;1.59;100.00
54308;BME280;40208;39.778;2.710;2023-02-13T06:42:11;103368.72;;;1.63;100.00
54308;BME280;40208;39.778;2.710;2023-02-13T06:44:55;103369.56;;;1.62;100.00
54308;BME280;40208;39.778;2.710;2023-02-13T06:47:41;103365.00;;;1.56;100.00
54308;BME280;40208;39.778;2.710;2023-02-13T06:50:26;103366.78;;;1.57;100.00
54308;BME280;40208;39.778;2.710;2023-02-13T06:53:11;103370.69;;;1.44;100.00
54308;BME280;40208;39.778;2.710;2023-02-13T06:55:56;103371.81;;;1.51;100.00
54308;BME280;40208;39.778;2.710;2023-02-13T06:58:41;103378.63;;;1.46;100.00
54308;BME280;40208;39.778;2.710;2023-02-13T07:01:26;103378.94;;;1.55;100.00
54308;BME280;40208;39.778;2.710;2023-02-13T07:04:11;103380.69;;;1.56;100.00
54308;BME280;40208;39.778;2.710;2023-02-13T07:06:55;103386.06;;;1.59;100.00
54308;BME280;40208;39.778;2.710;2023-02-13T07:09:40;103387.81;;;1.60;100.00
54308;BME280;40208;39.778;2.710;2023-02-13T07:12:25;103381.63;;;1.58;100.00
54308;BME280;40208;39.778;2.710;2023-02-13T07:15:10;103398.19;;;1.57;100.00
54308;BME280;40208;39.778;2.710;2023-02-13T07:17:55;103401.69;;;1.58;100.00
54308;BME280;40208;39.778;2.710;2023-02-13T07:20:40;103402.75;;;1.63;100.00
54308;BME280;40208;39.778;2.710;2023-02-13T07:23:25;103408.84;;;1.63;100.00
54308;BME280;40208;39.778;2.710;2023-02-13T07:26:10;103411.47;;;1.63;100.00
54308;BME280;40208;39.778;2.710;2023-02-13T07:28:55;103413.91;;;1.57;100.00
54308;BME280;40208;39.778;2.710;2023-02-13T07:31:39;103421.13;;;1.64;100.00
54308;BME280;40208;39.778;2.710;2023-02-13T07:34:25;103424.56;;;1.63;100.00
54308;BME280;40208;39.778;2.710;2023-02-13T07:37:09;103422.09;;;1.68;100.00
54308;BME280;40208;39.778;2.710;2023-02-13T07:39:54;103423.03;;;1.68;100.00
54308;BME280;40208;39.778;2.710;2023-02-13T07:42:39;103429.41;;;1.77;100.00
54308;BME280;40208;39.778;2.710;2023-02-13T07:45:24;103430.34;;;1.79;100.00
54308;BME280;40208;39.778;2.710;2023-02-13T07:48:09;103430.84;;;1.94;100.00
54308;BME280;40208;39.778;2.710;2023-02-13T07:50:54;103444.63;;;2.16;100.00
54308;BME280;40208;39.778;2.710;2023-02-13T07:53:42;103446.66;;;2.51;100.00
54308;BME280;40208;39.778;2.710;2023-02-13T07:56:27;103434.59;;;2.85;100.00
54308;BME280;40208;39.778;2.710;2023-02-13T07:59:12;103435.50;;;3.17;100.00
54308;BME280;40208;39.778;2.710;2023-02-13T08:01:57;103445.22;;;3.53;100.00
54308;BME280;40208;39.778;2.710;2023-02-13T08:04:42;103449.84;;;3.95;100.00
54308;BME280;40208;39.778;2.710;2023-02-13T08:07:29;103447.91;;;4.24;100.00
54308;BME280;40208;39.778;2.710;2023-02-13T08:10:15;103452.13;;;4.54;100.00
54308;BME280;40208;39.778;2.710;2023-02-13T08:13:18;103452.19;;;4.97;100.00
54308;BME280;40208;39.778;2.710;2023-02-13T08:16:03;103445.91;;;5.32;100.00
54308;BME280;40208;39.778;2.710;2023-02-13T08:18:48;103440.50;;;5.73;100.00
54308;BME280;40208;39.778;2.710;2023-02-13T08:21:32;103455.22;;;6.09;100.00
54308;BME280;40208;39.778;2.710;2023-02-13T08:24:18;103458.47;;;6.48;100.00
54308;BME280;40208;39.778;2.710;2023-02-13T08:27:03;103452.78;;;6.81;100.00
54308;BME280;40208;39.778;2.710;2023-02-13T08:29:48;103447.72;;;6.98;100.00
54308;BME280;40208;39.778;2.710;2023-02-13T08:32:33;103446.19;;;7.18;100.00
54308;BME280;40208;39.778;2.710;2023-02-13T08:35:17;103453.44;;;7.35;100.00
54308;BME280;40208;39.778;2.710;2023-02-13T08:38:03;103450.25;;;7.65;100.00
54308;BME280;40208;39.778;2.710;2023-02-13T08:40:47;103449.56;;;7.88;100.00
54308;BME280;40208;39.778;2.710;2023-02-13T08:43:32;103451.50;;;8.07;100.00
54308;BME280;40208;39.778;2.710;2023-02-13T08:46:17;103449.97;;;8.38;100.00
54308;BME280;40208;39.778;2.710;2023-02-13T08:49:05;103457.28;;;8.75;100.00
54308;BME280;40208;39.778;2.710;2023-02-13T08:51:50;103454.69;;;8.87;100.00
54308;BME280;40208;39.778;2.710;2023-02-13T08:54:35;103453.00;;;8.98;100.00
54308;BME280;40208;39.778;2.710;2023-02-13T08:57:19;103460.19;;;9.31;100.00
54308;BME280;40208;39.778;2.710;2023-02-13T09:00:04;103456.72;;;9.52;100.00
54308;BME280;40208;39.778;2.710;2023-02-13T09:02:49;103458.50;;;9.72;100.00
54308;BME280;40208;39.778;2.710;2023-02-13T09:05:34;103455.88;;;9.81;100.00
54308;BME280;40208;39.778;2.710;2023-02-13T09:08:19;103456.75;;;9.83;100.00
54308;BME280;40208;39.778;2.710;2023-02-13T09:11:04;103457.66;;;9.81;100.00
54308;BME280;40208;39.778;2.710;2023-02-13T09:13:53;103455.88;;;9.81;100.00
54308;BME280;40208;39.778;2.710;2023-02-13T09:16:38;103460.28;;;9.84;100.00
54308;BME280;40208;39.778;2.710;2023-02-13T09:19:23;103455.88;;;9.83;100.00
54308;BME280;40208;39.778;2.710;2023-02-13T09:22:08;103454.09;;;9.95;100.00
54308;BME280;40208;39.778;2.710;2023-02-13T09:24:52;103462.94;;;9.96;100.00
54308;BME280;40208;39.778;2.710;2023-02-13T09:27:37;103458.53;;;9.98;100.00
54308;BME280;40208;39.778;2.710;2023-02-13T09:30:22;103450.56;;;10.01;100.00
54308;BME280;40208;39.778;2.710;2023-02-13T09:33:09;103448.81;;;10.14;100.00
54308;BME280;40208;39.778;2.710;2023-02-13T09:35:54;103448.78;;;10.20;100.00
54308;BME280;40208;39.778;2.710;2023-02-13T09:38:40;103460.28;;;10.27;100.00
54308;BME280;40208;39.778;2.710;2023-02-13T09:41:30;103455.00;;;10.42;100.00
54308;BME280;40208;39.778;2.710;2023-02-13T09:44:17;103455.84;;;10.59;100.00
54308;BME280;40208;39.778;2.710;2023-02-13T09:47:31;103461.16;;;10.69;100.00
54308;BME280;40208;39.778;2.710;2023-02-13T09:53:02;103451.34;;;10.92;100.00
54308;BME280;40208;39.778;2.710;2023-02-13T09:56:09;103444.22;;;10.99;100.00
54308;BME280;40208;39.778;2.710;2023-02-13T09:58:56;103450.38;;;11.07;100.00
54308;BME280;40208;39.778;2.710;2023-02-13T10:01:43;103451.19;;;11.20;100.00
54308;BME280;40208;39.778;2.710;2023-02-13T10:04:35;103440.50;;;11.37;100.00
54308;BME280;40208;39.778;2.710;2023-02-13T10:16:09;103445.25;;;12.17;100.00
54308;BME280;40208;39.778;2.710;2023-02-13T10:18:56;103439.84;;;12.27;100.00
54308;BME280;40208;39.778;2.710;2023-02-13T10:21:46;103445.94;;;12.37;100.00
54308;BME280;40208;39.778;2.710;2023-02-13T10:24:36;103439.66;;;12.43;100.00
54308;BME280;40208;39.778;2.710;2023-02-13T10:27:25;103441.06;;;12.79;100.00
54308;BME280;40208;39.778;2.710;2023-02-13T10:30:24;103446.19;;;12.96;100.00
54308;BME280;40208;39.778;2.710;2023-02-13T10:33:13;103453.78;;;13.27;100.00
54308;BME280;40208;39.778;2.710;2023-02-13T10:45:00;103464.66;;;14.29;100.00
54308;BME280;40208;39.778;2.710;2023-02-13T10:47:53;103450.78;;;14.60;100.00
54308;BME280;40208;39.778;2.710;2023-02-13T10:50:45;103450.53;;;14.71;100.00
54308;BME280;40208;39.778;2.710;2023-02-13T10:59:38;103438.38;;;15.40;100.00
54308;BME280;40208;39.778;2.710;2023-02-13T11:02:27;103446.06;;;15.55;100.00
54308;BME280;40208;39.778;2.710;2023-02-13T11:05:13;103443.94;;;15.69;100.00
54308;BME280;40208;39.778;2.710;2023-02-13T11:07:59;103447.94;;;15.89;100.00
54308;BME280;40208;39.778;2.710;2023-02-13T11:10:45;103445.75;;;16.06;100.00
54308;BME280;40208;39.778;2.710;2023-02-13T11:13:30;103440.06;;;16.19;100.00
54308;BME280;40208;39.778;2.710;2023-02-13T11:16:15;103441.44;;;16.33;100.00
54308;BME280;40208;39.778;2.710;2023-02-13T11:19:00;103441.84;;;16.51;100.00
54308;BME280;40208;39.778;2.710;2023-02-13T11:21:46;103437.94;;;16.63;100.00
54308;BME280;40208;39.778;2.710;2023-02-13T11:24:31;103431.31;;;16.76;100.00
54308;BME280;40208;39.778;2.710;2023-02-13T11:27:21;103429.78;;;16.99;100.00
54308;BME280;40208;39.778;2.710;2023-02-13T11:36:07;103431.13;;;16.84;100.00
54308;BME280;40208;39.778;2.710;2023-02-13T11:39:05;103426.09;;;16.71;99.91
54308;BME280;40208;39.778;2.710;2023-02-13T11:41:49;103420.28;;;16.56;100.00
54308;BME280;40208;39.778;2.710;2023-02-13T11:44:34;103422.25;;;16.49;100.00
54308;BME280;40208;39.778;2.710;2023-02-13T11:47:31;103414.19;;;16.50;100.00
54308;BME280;40208;39.778;2.710;2023-02-13T11:50:27;103410.13;;;16.67;100.00
54308;BME280;40208;39.778;2.710;2023-02-13T11:53:17;103407.97;;;16.81;100.00
54308;BME280;40208;39.778;2.710;2023-02-13T11:58:48;103403.19;;;16.91;98.89
54308;BME280;40208;39.778;2.710;2023-02-13T12:01:44;103398.53;;;16.98;100.00
54308;BME280;40208;39.778;2.710;2023-02-13T12:04:32;103400.09;;;17.05;98.54
54308;BME280;40208;39.778;2.710;2023-02-13T12:07:29;103394.75;;;17.05;97.41
54308;BME280;40208;39.778;2.710;2023-02-13T12:10:26;103399.09;;;17.09;96.97
54308;BME280;40208;39.778;2.710;2023-02-13T12:13:20;103392.94;;;17.05;97.35
54308;BME280;40208;39.778;2.710;2023-02-13T12:16:13;103381.03;;;17.14;95.93
54308;BME280;40208;39.778;2.710;2023-02-13T12:19:03;103382.38;;;17.27;93.37
54308;BME280;40208;39.778;2.710;2023-02-13T12:30:39;103372.50;;;17.29;96.10
54308;BME280;40208;39.778;2.710;2023-02-13T12:47:28;103360.72;;;17.33;94.32
54308;BME280;40208;39.778;2.710;2023-02-13T12:50:19;103372.31;;;17.35;93.32
54308;BME280;40208;39.778;2.710;2023-02-13T12:53:19;103366.25;;;17.29;94.91
54308;BME280;40208;39.778;2.710;2023-02-13T12:56:12;103367.13;;;17.29;93.40
54308;BME280;40208;39.778;2.710;2023-02-13T12:59:03;103366.28;;;17.27;95.03
54308;BME280;40208;39.778;2.710;2023-02-13T13:10:44;103353.75;;;17.56;93.51
54308;BME280;40208;39.778;2.710;2023-02-13T13:22:11;103356.38;;;17.01;97.53
54308;BME280;40208;39.778;2.710;2023-02-13T13:25:24;103340.47;;;16.97;98.71
54308;BME280;40208;39.778;2.710;2023-02-13T13:28:08;103341.38;;;16.95;96.25
54308;BME280;40208;39.778;2.710;2023-02-13T13:30:55;103347.22;;;17.08;94.67
54308;BME280;40208;39.778;2.710;2023-02-13T13:33:42;103348.13;;;17.09;96.03
54308;BME280;40208;39.778;2.710;2023-02-13T13:42:29;103339.44;;;17.27;95.81
54308;BME280;40208;39.778;2.710;2023-02-13T13:45:34;103340.69;;;17.17;97.01
54308;BME280;40208;39.778;2.710;2023-02-13T13:51:18;103334.28;;;16.93;98.10
54308;BME280;40208;39.778;2.710;2023-02-13T13:57:02;103325.88;;;16.75;98.01
54308;BME280;40208;39.778;2.710;2023-02-13T14:05:22;103324.19;;;16.71;99.63
54308;BME280;40208;39.778;2.710;2023-02-13T14:08:53;103319.50;;;16.80;100.00
54308;BME280;40208;39.778;2.710;2023-02-13T14:17:12;103318.22;;;16.91;99.02
54308;BME280;40208;39.778;2.710;2023-02-13T14:19:58;103318.22;;;16.91;95.95
54308;BME280;40208;39.778;2.710;2023-02-13T14:22:43;103311.97;;;16.92;99.28
54308;BME280;40208;39.778;2.710;2023-02-13T14:25:28;103309.31;;;16.91;99.75
54308;BME280;40208;39.778;2.710;2023-02-13T14:48:44;103293.09;;;16.66;100.00
54308;BME280;40208;39.778;2.710;2023-02-13T14:51:34;103288.91;;;16.56;100.00
54308;BME280;40208;39.778;2.710;2023-02-13T14:57:16;103285.75;;;16.41;100.00
54308;BME280;40208;39.778;2.710;2023-02-13T15:03:24;103278.19;;;16.26;100.00
54308;BME280;40208;39.778;2.710;2023-02-13T15:06:13;103281.75;;;16.26;100.00
54308;BME280;40208;39.778;2.710;2023-02-13T15:09:03;103276.38;;;16.26;100.00
54308;BME280;40208;39.778;2.710;2023-02-13T15:11:49;103278.19;;;16.26;100.00
54308;BME280;40208;39.778;2.710;2023-02-13T15:14:34;103267.34;;;16.30;100.00
54308;BME280;40208;39.778;2.710;2023-02-13T15:17:21;103264.00;;;16.22;100.00
54308;BME280;40208;39.778;2.710;2023-02-13T15:22:58;103259.69;;;16.17;100.00
54308;BME280;40208;39.778;2.710;2023-02-13T15:25:43;103260.69;;;16.13;100.00
54308;BME280;40208;39.778;2.710;2023-02-13T15:28:28;103259.97;;;16.07;100.00
54308;BME280;40208;39.778;2.710;2023-02-13T15:31:19;103252.75;;;16.09;100.00
54308;BME280;40208;39.778;2.710;2023-02-13T15:37:17;103249.38;;;16.03;100.00
54308;BME280;40208;39.778;2.710;2023-02-13T15:40:18;103235.94;;;16.04;100.00
54308;BME280;40208;39.778;2.710;2023-02-13T15:43:06;103246.78;;;16.00;100.00
54308;BME280;40208;39.778;2.710;2023-02-13T15:46:04;103244.31;;;15.92;100.00
54308;BME280;40208;39.778;2.710;2023-02-13T15:48:51;103246.19;;;15.90;100.00
54308;BME280;40208;39.778;2.710;2023-02-13T15:51:35;103245.28;;;15.89;100.00
54308;BME280;40208;39.778;2.710;2023-02-13T15:54:22;103258.75;;;15.86;100.00
54308;BME280;40208;39.778;2.710;2023-02-13T15:57:08;103251.59;;;15.87;100.00
54308;BME280;40208;39.778;2.710;2023-02-13T15:59:54;103253.78;;;15.73;100.00
54308;BME280;40208;39.778;2.710;2023-02-13T16:02:41;103253.88;;;15.68;100.00
54308;BME280;40208;39.778;2.710;2023-02-13T16:05:27;103249.59;;;15.61;100.00
54308;BME280;40208;39.778;2.710;2023-02-13T16:08:27;103249.69;;;15.58;100.00
54308;BME280;40208;39.778;2.710;2023-02-13T16:17:04;103262.75;;;15.36;100.00
54308;BME280;40208;39.778;2.710;2023-02-13T16:22:53;103263.25;;;15.16;100.00
54308;BME280;40208;39.778;2.710;2023-02-13T16:25:39;103265.22;;;15.09;100.00
54308;BME280;40208;39.778;2.710;2023-02-13T16:28:24;103254.91;;;14.92;100.00
54308;BME280;40208;39.778;2.710;2023-02-13T16:31:13;103260.41;;;14.86;100.00
54308;BME280;40208;39.778;2.710;2023-02-13T16:33:58;103262.44;;;14.76;100.00
54308;BME280;40208;39.778;2.710;2023-02-13T16:36:43;103261.03;;;14.58;100.00
54308;BME280;40208;39.778;2.710;2023-02-13T16:39:29;103254.97;;;14.50;100.00
54308;BME280;40208;39.778;2.710;2023-02-13T16:42:17;103256.81;;;14.47;100.00
54308;BME280;40208;39.778;2.710;2023-02-13T16:45:21;103261.41;;;14.40;100.00
54308;BME280;40208;39.778;2.710;2023-02-13T16:48:09;103266.78;;;14.38;100.00
54308;BME280;40208;39.778;2.710;2023-02-13T16:50:54;103262.75;;;14.19;100.00
54308;BME280;40208;39.778;2.710;2023-02-13T16:53:39;103263.66;;;14.16;100.00
54308;BME280;40208;39.778;2.710;2023-02-13T16:56:24;103263.06;;;14.02;100.00
54308;BME280;40208;39.778;2.710;2023-02-13T17:04:55;103272.19;;;13.92;100.00
54308;BME280;40208;39.778;2.710;2023-02-13T17:07:42;103273.66;;;13.60;100.00
54308;BME280;40208;39.778;2.710;2023-02-13T17:10:31;103286.44;;;13.41;100.00
54308;BME280;40208;39.778;2.710;2023-02-13T17:13:20;103287.63;;;13.22;100.00
54308;BME280;40208;39.778;2.710;2023-02-13T17:16:06;103292.25;;;13.07;100.00
54308;BME280;40208;39.778;2.710;2023-02-13T17:18:52;103285.38;;;12.92;100.00
54308;BME280;40208;39.778;2.710;2023-02-13T17:21:37;103290.66;;;12.99;100.00
54308;BME280;40208;39.778;2.710;2023-02-13T17:24:21;103287.31;;;12.84;100.00
54308;BME280;40208;39.778;2.710;2023-02-13T17:27:07;103297.09;;;12.84;100.00
54308;BME280;40208;39.778;2.710;2023-02-13T17:29:52;103299.75;;;12.84;100.00
54308;BME280;40208;39.778;2.710;2023-02-13T17:32:37;103301.97;;;12.51;100.00
54308;BME280;40208;39.778;2.710;2023-02-13T17:35:22;103309.25;;;12.35;100.00
54308;BME280;40208;39.778;2.710;2023-02-13T17:38:08;103307.75;;;12.11;100.00
54308;BME280;40208;39.778;2.710;2023-02-13T17:40:53;103315.69;;;12.14;100.00
54308;BME280;40208;39.778;2.710;2023-02-13T17:43:38;103316.81;;;11.93;100.00
54308;BME280;40208;39.778;2.710;2023-02-13T17:46:23;103316.22;;;11.57;100.00
54308;BME280;40208;39.778;2.710;2023-02-13T17:49:08;103325.19;;;11.47;100.00
54308;BME280;40208;39.778;2.710;2023-02-13T17:51:52;103333.19;;;11.44;100.00
54308;BME280;40208;39.778;2.710;2023-02-13T17:54:37;103335.09;;;11.23;100.00
54308;BME280;40208;39.778;2.710;2023-02-13T17:57:22;103336.16;;;10.99;100.00
54308;BME280;40208;39.778;2.710;2023-02-13T18:00:07;103332.72;;;10.79;100.00
54308;BME280;40208;39.778;2.710;2023-02-13T18:02:52;103334.50;;;10.77;100.00
54308;BME280;40208;39.778;2.710;2023-02-13T18:05:38;103334.59;;;10.51;100.00
54308;BME280;40208;39.778;2.710;2023-02-13T18:08:23;103340.81;;;10.44;100.00
54308;BME280;40208;39.778;2.710;2023-02-13T18:11:09;103339.09;;;10.33;100.00